createdAt,value
2023-05-20T00:03:00.544Z,2.05
2023-05-20T00:08:06.322Z,2.25
2023-05-20T00:13:10.040Z,1.60
2023-05-20T00:18:14.596Z,1.65
2023-05-20T00:23:22.923Z,1.92
2023-05-20T00:28:26.544Z,2.00
2023-05-20T00:33:30.199Z,1.58
2023-05-20T00:38:35.766Z,1.90
2023-05-20T00:43:39.447Z,1.73
2023-05-20T00:48:44.973Z,1.60
2023-05-20T00:53:50.589Z,2.00
2023-05-20T00:58:54.397Z,2.15
2023-05-20T01:03:58.126Z,2.00
2023-05-20T01:09:03.487Z,2.33
2023-05-20T01:14:09.741Z,2.20
2023-05-20T01:19:23.038Z,2.10
2023-05-20T01:24:28.485Z,2.92
2023-05-20T01:29:32.184Z,2.60
2023-05-20T01:34:37.918Z,2.10
2023-05-20T01:39:46.231Z,2.15
2023-05-20T01:44:50.044Z,2.33
2023-05-20T01:49:53.687Z,1.85
2023-05-20T01:54:59.164Z,2.08
2023-05-20T02:00:02.848Z,2.40
2023-05-20T02:05:07.087Z,2.20
2023-05-20T02:10:12.903Z,2.50
2023-05-20T02:15:16.709Z,2.13
2023-05-20T02:20:20.405Z,2.50
2023-05-20T02:25:25.740Z,2.35
2023-05-20T02:35:32.435Z,2.72
2023-05-20T02:40:37.949Z,2.50
2023-05-20T02:45:42.235Z,2.58
2023-05-20T02:50:47.334Z,2.87
2023-05-20T02:55:52.720Z,2.60
2023-05-20T03:05:59.409Z,2.60
2023-05-20T03:11:05.526Z,2.40
2023-05-20T03:16:10.406Z,2.30
2023-05-20T03:21:14.102Z,2.72
2023-05-20T03:26:19.531Z,2.60
2023-05-20T03:31:23.206Z,2.40
2023-05-20T03:36:27.518Z,2.53
2023-05-20T03:41:33.258Z,2.33
2023-05-20T03:46:36.904Z,2.50
2023-05-20T03:51:40.601Z,2.75
2023-05-20T03:56:45.915Z,3.10
2023-05-20T04:01:49.610Z,2.40
2023-05-20T04:06:53.258Z,2.88
2023-05-20T04:11:58.620Z,2.60
2023-05-20T04:17:03.142Z,2.30
2023-05-20T04:22:07.080Z,2.70
2023-05-20T04:27:12.365Z,2.70
2023-05-20T04:32:18.450Z,2.50
2023-05-20T04:37:22.242Z,2.03
2023-05-20T04:42:28.646Z,2.00
2023-05-20T04:47:32.393Z,2.35
2023-05-20T04:52:36.084Z,2.50
2023-05-20T04:57:41.565Z,2.50
2023-05-20T05:02:45.978Z,2.42
2023-05-20T05:07:49.705Z,2.95
2023-05-20T05:12:55.019Z,2.67
2023-05-20T05:17:59.357Z,2.53
2023-05-20T05:23:03.018Z,2.90
2023-05-20T05:28:08.363Z,3.13
2023-05-20T05:33:12.128Z,2.90
2023-05-20T05:38:15.862Z,3.33
2023-05-20T05:43:21.228Z,3.50
2023-05-20T05:48:24.942Z,2.55
2023-05-20T05:53:28.848Z,2.97
2023-05-20T05:58:34.189Z,2.83
2023-05-20T06:03:38.065Z,3.15
2023-05-20T06:08:41.772Z,3.20
2023-05-20T06:13:48.057Z,3.10
2023-05-20T06:18:51.750Z,3.30
2023-05-20T06:23:55.404Z,3.42
2023-05-20T06:29:00.738Z,3.17
2023-05-20T06:34:04.413Z,3.08
2023-05-20T06:39:08.084Z,3.20
2023-05-20T06:44:13.386Z,2.85
2023-05-20T06:49:17.070Z,3.57
2023-05-20T06:54:20.731Z,2.92
2023-05-20T06:59:26.217Z,3.20
2023-05-20T07:04:29.978Z,2.85
2023-05-20T07:09:33.633Z,3.17
2023-05-20T07:14:40.002Z,3.45
2023-05-20T07:19:43.652Z,3.45
2023-05-20T07:24:49.447Z,3.90
2023-05-20T07:29:55.504Z,3.10
2023-05-20T07:34:59.155Z,3.13
2023-05-20T07:40:03.099Z,3.30
2023-05-20T07:45:09.698Z,3.22
2023-05-20T07:50:13.426Z,3.10
2023-05-20T07:55:17.197Z,3.25
2023-05-20T08:00:23.089Z,3.33
2023-05-20T08:10:29.772Z,3.25
2023-05-20T08:15:36.457Z,2.95
2023-05-20T08:20:40.179Z,3.80
2023-05-20T08:25:43.869Z,3.22
2023-05-20T08:30:49.247Z,3.25
2023-05-20T08:35:52.997Z,3.20
2023-05-20T08:40:58.009Z,3.00
2023-05-20T08:46:03.948Z,3.20
2023-05-20T08:51:10.941Z,3.13
2023-05-20T08:56:14.879Z,2.75
2023-05-20T09:01:20.381Z,3.00
2023-05-20T09:06:24.080Z,3.25
2023-05-20T09:11:27.807Z,3.10
2023-05-20T09:16:33.263Z,3.30
2023-05-20T09:21:37.027Z,3.10
2023-05-20T09:26:40.682Z,3.20
2023-05-20T09:31:46.093Z,3.47
2023-05-20T09:36:52.123Z,3.03
2023-05-20T09:42:03.747Z,2.50
2023-05-20T09:47:10.512Z,2.42
2023-05-20T09:52:16.091Z,1.95
2023-05-20T09:57:19.928Z,1.73
2023-05-20T10:02:25.345Z,1.42
2023-05-20T10:08:09.748Z,1.65
2023-05-20T10:13:24.531Z,1.60
2023-05-20T10:18:43.284Z,1.63
2023-05-20T10:23:47.440Z,1.48
2023-05-20T10:28:51.208Z,1.65
2023-05-20T10:33:59.692Z,1.60
2023-05-20T10:39:04.919Z,1.77
2023-05-20T10:44:08.605Z,1.33
2023-05-20T10:49:25.239Z,1.42
2023-05-20T10:54:36.056Z,1.75
2023-05-20T10:59:39.898Z,1.70
2023-05-20T11:04:45.939Z,1.70
2023-05-20T11:14:54.678Z,1.70
2023-05-20T11:20:00.194Z,2.30
2023-05-20T11:25:07.139Z,2.00
2023-05-20T11:30:12.673Z,2.47
2023-05-20T11:35:25.823Z,2.47
2023-05-20T11:40:38.947Z,2.42
2023-05-20T11:45:47.505Z,2.13
2023-05-20T11:50:55.609Z,1.98
2023-05-20T11:56:00.873Z,2.20
2023-05-20T12:01:13.998Z,2.60
2023-05-20T12:06:26.887Z,2.45
2023-05-20T12:11:30.547Z,2.87
2023-05-20T12:16:35.436Z,3.10
2023-05-20T12:21:40.810Z,3.10
2023-05-20T12:26:44.508Z,3.53
2023-05-20T12:31:48.566Z,3.22
2023-05-20T12:36:53.999Z,3.00
2023-05-20T12:41:57.702Z,2.80
2023-05-20T12:47:01.636Z,2.92
2023-05-20T12:52:11.894Z,3.20
2023-05-20T12:57:23.132Z,3.50
2023-05-20T13:02:26.857Z,3.22
2023-05-20T13:07:32.298Z,3.10
2023-05-20T13:12:36.057Z,3.00
2023-05-20T13:17:39.858Z,3.28
2023-05-20T13:22:45.161Z,3.17
2023-05-20T13:27:48.860Z,3.30
2023-05-20T13:32:52.971Z,3.15
2023-05-20T13:37:59.291Z,3.10
2023-05-20T13:43:02.950Z,3.10
2023-05-20T13:48:07.082Z,3.60
2023-05-20T13:53:12.430Z,3.08
2023-05-20T13:58:16.135Z,3.53
2023-05-20T14:03:19.986Z,3.22
2023-05-20T14:08:25.421Z,3.08
2023-05-20T14:13:29.085Z,3.43
2023-05-20T14:18:32.775Z,3.28
2023-05-20T14:23:38.230Z,3.28
2023-05-20T14:28:41.859Z,2.67
2023-05-20T14:33:45.526Z,2.30
2023-05-20T14:38:50.895Z,2.50
2023-05-20T14:43:54.535Z,2.47
2023-05-20T14:48:58.864Z,2.70
2023-05-20T14:54:04.231Z,2.65
2023-05-20T14:59:08.063Z,2.22
2023-05-20T15:04:11.838Z,2.30
2023-05-20T15:09:17.225Z,2.70
2023-05-20T15:14:20.970Z,2.65
2023-05-20T15:19:24.678Z,2.67
2023-05-20T15:24:30.137Z,2.42
2023-05-20T15:29:33.811Z,2.70
2023-05-20T15:34:37.507Z,2.30
2023-05-20T15:39:42.818Z,2.38
2023-05-20T15:44:46.759Z,2.22
2023-05-20T15:49:50.448Z,2.10
2023-05-20T15:54:55.957Z,2.17
2023-05-20T16:05:03.210Z,2.10
2023-05-20T16:10:09.930Z,1.88
2023-05-20T16:15:14.038Z,1.98
2023-05-20T16:20:17.662Z,2.10
2023-05-20T16:25:23.053Z,1.73
2023-05-20T16:30:26.855Z,1.52
2023-05-20T16:35:30.507Z,1.30
2023-05-20T16:40:36.814Z,1.20
2023-05-20T16:45:40.503Z,1.00
2023-05-20T16:50:44.228Z,1.08
2023-05-20T16:55:49.573Z,0.75
2023-05-20T17:05:56.573Z,0.93
2023-05-20T17:11:03.581Z,1.00
2023-05-20T17:16:09.881Z,0.80
2023-05-20T17:21:15.534Z,0.85
2023-05-20T17:26:21.066Z,0.93
2023-05-20T17:31:24.683Z,0.77
2023-05-20T17:36:29.292Z,0.98
2023-05-20T17:41:34.574Z,0.52
2023-05-20T17:46:38.394Z,0.90
2023-05-20T17:51:42.144Z,0.70
2023-05-20T17:56:48.920Z,0.60
2023-05-20T18:01:52.815Z,0.70
2023-05-20T18:06:56.570Z,0.70
2023-05-20T18:12:02.941Z,0.90
2023-05-20T18:17:06.781Z,0.68
2023-05-20T18:22:10.442Z,1.02
2023-05-20T18:27:15.749Z,1.10
2023-05-20T18:32:19.604Z,1.45
2023-05-20T18:37:23.264Z,1.20
2023-05-20T18:42:28.735Z,1.55
2023-05-20T18:47:32.933Z,1.30
2023-05-20T18:52:36.679Z,1.10
2023-05-20T18:57:41.998Z,1.33
2023-05-20T19:02:45.979Z,1.00
2023-05-20T19:07:49.649Z,1.60
2023-05-20T19:12:54.947Z,1.08
2023-05-20T19:17:58.704Z,1.20
2023-05-20T19:23:02.390Z,1.00
2023-05-20T19:28:07.983Z,1.30
2023-05-20T19:33:11.636Z,1.17
2023-05-20T19:38:15.449Z,1.00
2023-05-20T19:43:20.753Z,1.00
2023-05-20T19:48:24.393Z,1.20
2023-05-20T19:53:28.044Z,1.00
2023-05-20T19:58:34.294Z,1.27
2023-05-20T20:03:37.966Z,1.00
2023-05-20T20:08:41.697Z,1.10
2023-05-20T20:13:47.031Z,1.08
2023-05-20T20:18:50.686Z,1.15
2023-05-20T20:23:54.380Z,1.00
2023-05-20T20:29:00.608Z,1.17
2023-05-20T20:34:04.244Z,1.23
2023-05-20T20:39:07.964Z,1.33
2023-05-20T20:44:13.419Z,1.20
2023-05-20T20:49:17.167Z,1.20
2023-05-20T20:54:20.886Z,1.60
2023-05-20T20:59:26.402Z,1.50
2023-05-20T21:04:30.395Z,1.35
2023-05-20T21:09:34.091Z,1.52
2023-05-20T21:14:39.424Z,1.30
2023-05-20T21:19:43.097Z,1.33
2023-05-20T21:24:46.754Z,1.30
2023-05-20T21:29:52.092Z,1.42
2023-05-20T21:34:56.856Z,1.30
2023-05-20T21:40:02.045Z,1.60
2023-05-20T21:45:08.738Z,1.70
2023-05-20T21:50:13.268Z,2.28
2023-05-20T21:55:17.072Z,1.83
2023-05-20T22:00:22.405Z,2.00
2023-05-20T22:05:28.644Z,2.00
2023-05-20T22:10:32.330Z,1.90
2023-05-20T22:15:37.872Z,2.20
2023-05-20T22:20:41.745Z,2.30
2023-05-20T22:25:45.519Z,2.30
2023-05-20T22:30:50.975Z,2.35
2023-05-20T22:35:54.939Z,2.55
2023-05-20T22:40:58.680Z,2.20
2023-05-20T22:46:04.251Z,2.22
2023-05-20T22:51:08.088Z,2.28
2023-05-20T22:56:11.717Z,2.30
2023-05-20T23:01:17.111Z,2.00
2023-05-20T23:06:20.811Z,2.33
2023-05-20T23:11:24.498Z,2.30
2023-05-20T23:16:29.918Z,1.95
2023-05-20T23:21:33.691Z,2.40
2023-05-20T23:26:37.349Z,2.47
2023-05-20T23:31:42.690Z,2.28
2023-05-20T23:36:46.330Z,2.50
2023-05-20T23:41:49.919Z,2.20
2023-05-20T23:46:55.263Z,2.17
2023-05-20T23:51:58.940Z,2.00
2023-05-20T23:57:02.675Z,2.10
